FW4179 Weather Reports


time (UTC)temp
C
wind
direction
speed
KPH
gust
KPH
rain 1hr
cm
rain 24hr
cm
rain mn
cm
humidity
%
barometer
mb
20200531082535 15 32 0.0 0.0 0.00 0.00 0.00 85 1019.8
20200531082034 15 32 0.0 0.0 0.00 0.00 0.00 85 1019.9
20200531081625 15 32 0.0 0.0 0.00 0.00 0.00 85 1019.8
20200531081036 15 32 0.0 0.0 0.00 0.00 0.00 85 1019.8
20200531080530 15 32 0.0 0.0 0.00 0.00 0.00 84 1019.8
20200531080119 15 32 0.0 0.0 0.00 0.00 0.00 84 1019.8
20200531075030 16 32 0.0 0.0 0.00 0.00 0.00 83 1019.7
20200531074603 16 32 0.0 0.0 0.00 0.00 0.00 83 1019.8
20200531074027 16 32 0.0 0.0 0.00 0.00 0.00 83 1019.7
20200531073533 16 32 0.0 0.0 0.00 0.00 0.00 83 1019.7
20200531073026 16 32 0.0 0.0 0.00 0.00 0.00 83 1019.6
20200531072531 16 32 0.0 0.0 0.00 0.00 0.00 83 1019.6
20200531072037 16 32 0.0 0.0 0.00 0.00 0.00 83 1019.6
20200531071647 16 32 0.0 0.0 0.00 0.00 0.00 82 1019.7
20200531071035 16 32 0.0 0.0 0.00 0.00 0.00 82 1019.6
20200531070524 16 32 0.0 0.0 0.00 0.00 0.00 82 1019.5
20200531070035 16 32 0.0 3.2 0.00 0.00 0.00 82 1019.6
20200531065523 16 32 0.0 3.2 0.00 0.00 0.00 82 1019.6
20200531065022 16 32 0.0 4.8 0.00 0.00 0.00 81 1019.7
20200531064554 16 32 1.6 4.8 0.00 0.00 0.00 81 1019.6
20200531064032 16 32 0.0 3.2 0.00 0.00 0.00 81 1019.7
20200531063520 16 32 0.0 4.8 0.00 0.00 0.00 81 1019.6
20200531063020 17 32 1.6 4.8 0.00 0.00 0.00 80 1019.6
20200531062524 17 32 1.6 4.8 0.00 0.00 0.00 80 1019.7
20200531062024 17 32 1.6 4.8 0.00 0.00 0.00 80 1019.7
20200531061535 17 34 1.6 4.8 0.00 0.00 0.00 80 1019.7
20200531061017 17 34 1.6 4.8 0.00 0.00 0.00 80 1019.7
20200531060516 17 38 1.6 6.4 0.00 0.00 0.00 80 1019.6
20200531060021 17 38 1.6 6.4 0.00 0.00 0.00 80 1019.5
20200531055522 17 34 1.6 6.4 0.00 0.00 0.00 80 1019.5
20200531055016 17 34 1.6 6.4 0.00 0.00 0.00 80 1019.6
20200531054533 17 33 1.6 4.8 0.00 0.00 0.00 79 1019.7
20200531054013 17 32 1.6 4.8 0.00 0.00 0.00 79 1019.7
20200531053513 17 34 1.6 4.8 0.00 0.00 0.00 79 1019.7
20200531053035 17 28 1.6 4.8 0.00 0.00 0.00 79 1019.7
20200531052512 17 24 1.6 4.8 0.00 0.00 0.00 78 1019.7
20200531052011 17 34 1.6 4.8 0.00 0.00 0.00 79 1019.6
20200531051512 17 38 1.6 6.4 0.00 0.00 0.00 78 1019.7
20200531051019 18 35 1.6 4.8 0.00 0.00 0.00 78 1019.7
20200531050508 18 34 1.6 6.4 0.00 0.00 0.00 78 1019.8
20200531050008 18 34 1.6 6.4 0.00 0.00 0.00 78 1019.8
20200531045508 18 34 3.2 6.4 0.00 0.00 0.00 78 1019.7
20200531045007 18 38 3.2 6.4 0.00 0.00 0.00 78 1019.6
20200531044520 18 35 3.2 6.4 0.00 0.00 0.00 77 1019.7
20200531044011 18 27 1.6 6.4 0.00 0.00 0.00 77 1019.7
20200531043506 18 32 3.2 6.4 0.00 0.00 0.00 77 1019.7
20200531043019 18 32 3.2 6.4 0.00 0.00 0.00 77 1019.7
20200531042515 18 36 1.6 6.4 0.00 0.00 0.00 78 1019.6
20200531042008 18 38 1.6 6.4 0.00 0.00 0.00 77 1019.6
20200531041508 18 22 1.6 6.4 0.00 0.00 0.00 77 1019.6
20200531041006 18 30 1.6 6.4 0.00 0.00 0.00 76 1019.6
20200531040508 18 9 0.0 4.8 0.00 0.00 0.00 76 1019.6
20200531040019 18 338 0.0 0.0 0.00 0.00 0.00 76 1019.6
20200531035514 18 329 0.0 0.0 0.00 0.00 0.00 76 1019.6
20200531035007 18 315 0.0 0.0 0.00 0.00 0.00 76 1019.7
20200531034506 18 315 0.0 3.2 0.00 0.00 0.00 76 1019.7
20200531034004 18 309 0.0 3.2 0.00 0.00 0.00 76 1019.6
20200531033505 18 307 0.0 0.0 0.00 0.00 0.00 76 1019.6
20200531033011 18 307 0.0 0.0 0.00 0.00 0.00 76 1019.6
20200531032504 18 307 0.0 0.0 0.00 0.00 0.00 75 1019.6
20200531032007 19 307 0.0 0.0 0.00 0.00 0.00 75 1019.5
20200531031528 19 307 0.0 0.0 0.00 0.00 0.00 74 1019.6
20200531031004 19 307 0.0 0.0 0.00 0.00 0.00 75 1019.6
20200531030507 19 307 0.0 0.0 0.00 0.00 0.00 75 1019.6
20200531030008 19 307 0.0 0.0 0.00 0.00 0.00 74 1019.5
20200531025503 19 307 0.0 0.0 0.00 0.00 0.00 73 1019.5
20200531025004 19 307 0.0 0.0 0.00 0.00 0.00 73 1019.5
20200531024504 20 307 0.0 0.0 0.00 0.00 0.00 72 1019.4
20200531024010 20 307 0.0 0.0 0.00 0.00 0.00 72 1019.4
20200531023503 20 307 0.0 0.0 0.00 0.00 0.00 72 1019.3
20200531023021 20 307 0.0 0.0 0.00 0.00 0.00 72 1019.3
20200531022507 20 307 0.0 0.0 0.00 0.00 0.00 71 1019.2
20200531022006 20 307 0.0 0.0 0.00 0.00 0.00 71 1019.3
20200531021503 20 307 0.0 0.0 0.00 0.00 0.00 71 1019.3
20200531021002 20 307 0.0 0.0 0.00 0.00 0.00 70 1019.3
20200531020501 20 307 0.0 0.0 0.00 0.00 0.00 70 1019.3
20200531020004 20 307 0.0 0.0 0.00 0.00 0.00 69 1019.3
20200531015501 20 307 0.0 0.0 0.00 0.00 0.00 68 1019.1
20200531015002 20 307 0.0 0.0 0.00 0.00 0.00 68 1019.0
20200531014510 21 307 0.0 0.0 0.00 0.00 0.00 68 1018.9
20200531014001 21 307 0.0 0.0 0.00 0.00 0.00 67 1018.8
20200531013501 21 307 0.0 0.0 0.00 0.00 0.00 66 1018.8
20200531013001 21 307 0.0 0.0 0.00 0.00 0.00 66 1018.8
20200531012500 21 307 0.0 0.0 0.00 0.00 0.00 65 1018.8
20200531012001 21 307 0.0 0.0 0.00 0.00 0.00 65 1018.8
20200531011508 21 307 0.0 0.0 0.00 0.00 0.00 64 1018.7
20200531010601 22 307 0.0 3.2 0.00 0.00 0.00 64 1018.9
20200531010206 22 307 0.0 3.2 0.00 0.00 0.00 63 1018.8
20200531005604 22 307 0.0 3.2 0.00 0.00 0.00 62 1018.7
20200531005109 22 278 0.0 3.2 0.00 0.00 0.00 63 1018.6
20200531004638 22 278 0.0 3.2 0.00 0.00 0.00 61 1018.6
20200531004059 22 278 0.0 3.2 0.00 0.00 0.00 61 1018.6
20200531003602 23 278 0.0 3.2 0.00 0.00 0.00 59 1018.4
20200531003138 23 278 0.0 3.2 0.00 0.00 0.00 59 1018.3
20200531002600 23 278 0.0 3.2 0.00 0.00 0.00 58 1018.2
20200531002101 23 275 0.0 0.0 0.00 0.00 0.00 56 1018.2
20200531001631 24 275 0.0 1.6 0.00 0.00 0.00 55 1018.1
20200531001058 25 275 0.0 1.6 0.00 0.00 0.00 54 1018.1
20200531000604 25 275 0.0 1.6 0.00 0.00 0.00 53 1018.0
20200531000129 25 275 0.0 3.2 0.00 0.00 0.00 54 1017.8
20200530235558 25 275 0.0 3.2 0.00 0.00 0.00 54 1017.8
20200530235108 25 275 0.0 11.3 0.00 0.00 0.00 52 1017.7
20200530234645 25 232 3.2 9.7 0.00 0.00 0.00 50 1017.9
20200530234057 25 331 1.6 4.8 0.00 0.00 0.00 51 1018.0
20200530233557 25 330 0.0 4.8 0.00 0.00 0.00 49 1018.0
20200530233131 25 345 1.6 4.8 0.00 0.00 0.00 49 1018.0
20200530232557 26 332 1.6 4.8 0.00 0.00 0.00 49 1018.1
20200530232057 26 333 0.0 4.8 0.00 0.00 0.00 50 1018.1
20200530231914 26 9 1.6 6.4 0.00 0.00 0.00 47 1018.0
20200530231103 26 344 3.2 6.4 0.00 0.00 0.00 48 1018.0
20200530230559 26 342 0.0 4.8 0.00 0.00 0.00 53 1017.9
20200530230140 25 342 1.6 6.4 0.00 0.00 0.00 47 1017.7
20200530225556 25 32 1.6 8.0 0.00 0.00 0.00 47 1017.8
20200530225058 26 10 3.2 8.0 0.00 0.00 0.00 46 1017.9
20200530224624 26 336 1.6 8.0 0.00 0.00 0.00 46 1017.8
20200530224056 26 360 1.6 8.0 0.00 0.00 0.00 47 1017.9
20200530223603 26 52 3.2 8.0 0.00 0.00 0.00 48 1017.9
20200530223248 26 285 1.6 11.3 0.00 0.00 0.00 51 1017.8
20200530222558 26 270 3.2 12.9 0.00 0.00 0.00 52 1017.8
20200530222054 26 302 3.2 11.3 0.00 0.00 0.00 52 1017.9
20200530221717 26 360 1.6 6.4 0.00 0.00 0.00 51 1018.0
20200530221054 25 329 1.6 6.4 0.00 0.00 0.00 51 1018.1
20200530220553 26 319 3.2 14.5 0.00 0.00 0.00 51 1018.0
20200530220139 26 290 6.4 14.5 0.00 0.00 0.00 53 1017.8
20200530215554 26 332 1.6 6.4 0.00 0.00 0.00 56 1017.8
20200530215053 25 284 1.6 6.4 0.00 0.00 0.00 55 1017.8
20200530214621 25 333 0.0 3.2 0.00 0.00 0.00 56 1017.9
20200530214053 25 333 1.6 6.4 0.00 0.00 0.00 55 1017.8
20200530213556 25 333 1.6 8.0 0.00 0.00 0.00 51 1017.9
20200530213135 26 331 3.2 14.5 0.00 0.00 0.00 53 1017.8
20200530212553 26 290 4.8 14.5 0.00 0.00 0.00 52 1017.8
20200530212053 26 277 4.8 14.5 0.00 0.00 0.00 53 1017.7
20200530211729 26 260 6.4 14.5 0.00 0.00 0.00 52 1017.8
20200530211055 26 288 3.2 6.4 0.00 0.00 0.00 57 1017.9
20200530210551 25 309 1.6 4.8 0.00 0.00 0.00 53 1017.8
20200530210206 26 355 1.6 8.0 0.00 0.00 0.00 50 1017.8
20200530205555 26 355 1.6 12.9 0.00 0.00 0.00 50 1017.8
20200530205051 26 325 4.8 14.5 0.00 0.00 0.00 49 1018.0
20200530204734 26 271 8.0 14.5 0.00 0.00 0.00 50 1017.9
20200530204051 26 261 3.2 8.0 0.00 0.00 0.00 56 1017.9
20200530203550 26 339 3.2 6.4 0.00 0.00 0.00 51 1017.9
20200530203117 26 34 1.6 4.8 0.00 0.00 0.00 55 1018.0
20200530202551 26 30 1.6 6.4 0.00 0.00 0.00 53 1018.1
20200530202051 26 29 3.2 6.4 0.00 0.00 0.00 50 1018.1
20200530201618 26 315 1.6 11.3 0.00 0.00 0.00 50 1018.1
20200530201050 26 301 4.8 14.5 0.00 0.00 0.00 52 1018.1
20200530200549 26 300 6.4 14.5 0.00 0.00 0.00 52 1018.1
20200530200157 26 21 0.0 4.8 0.00 0.00 0.00 57 1018.2
20200530195549 26 32 1.6 8.0 0.00 0.00 0.00 56 1018.2
20200530195049 26 26 1.6 8.0 0.00 0.00 0.00 51 1018.2
20200530194619 26 298 1.6 8.0 0.00 0.00 0.00 48 1018.1
20200530194048 26 29 1.6 12.9 0.00 0.00 0.00 52 1018.1
20200530193547 26 331 4.8 12.9 0.00 0.00 0.00 54 1018.2
20200530193139 26 39 1.6 12.9 0.00 0.00 0.00 50 1018.1
20200530192547 25 243 1.6 11.3 0.00 0.00 0.00 53 1018.2
20200530192046 25 284 3.2 14.5 0.00 0.00 0.00 55 1018.3
20200530191629 26 315 6.4 12.9 0.00 0.00 0.00 51 1018.1
20200530191046 26 336 3.2 14.5 0.00 0.00 0.00 54 1018.2
20200530190549 25 310 3.2 9.7 0.00 0.00 0.00 58 1018.2
20200530190137 25 263 3.2 11.3 0.00 0.00 0.00 57 1018.3
20200530185544 25 263 4.8 11.3 0.00 0.00 0.00 53 1018.4
20200530185045 25 300 1.6 4.8 0.00 0.00 0.00 59 1018.5
20200530184640 25 334 0.0 6.4 0.00 0.00 0.00 58 1018.5
20200530184044 25 334 1.6 9.7 0.00 0.00 0.00 55 1018.5
20200530183544 26 259 1.6 6.4 0.00 0.00 0.00 56 1018.4
20200530183117 26 348 1.6 4.8 0.00 0.00 0.00 52 1018.4
20200530182544 25 331 0.0 4.8 0.00 0.00 0.00 59 1018.5
20200530182043 25 315 1.6 4.8 0.00 0.00 0.00 54 1018.5
20200530181607 25 321 1.6 4.8 0.00 0.00 0.00 55 1018.5
20200530181042 25 280 0.0 4.8 0.00 0.00 0.00 60 1018.6
20200530180544 25 329 1.6 4.8 0.00 0.00 0.00 57 1018.7
20200530180126 25 329 1.6 4.8 0.00 0.00 0.00 56 1018.7
20200530175547 25 279 0.0 8.0 0.00 0.00 0.00 56 1018.7
20200530175042 25 275 1.6 8.0 0.00 0.00 0.00 56 1018.8
20200530174608 25 321 0.0 9.7 0.00 0.00 0.00 52 1018.7
20200530174042 25 248 3.2 6.4 0.00 0.00 0.00 55 1018.8
20200530173543 25 360 0.0 4.8 0.00 0.00 0.00 54 1018.9
20200530173110 25 360 1.6 6.4 0.00 0.00 0.00 52 1019.1
20200530172542 25 328 1.6 6.4 0.00 0.00 0.00 51 1019.0
20200530172041 25 288 1.6 11.3 0.00 0.00 0.00 56 1018.9
20200530171621 25 339 3.2 9.7 0.00 0.00 0.00 54 1019.0
20200530171055 25 37 1.6 6.4 0.00 0.00 0.00 54 1019.0
20200530170541 25 33 1.6 9.7 0.00 0.00 0.00 56 1019.0
20200530170043 25 271 1.6 8.0 0.00 0.00 0.00 59 1018.9
20200530165541 25 17 3.2 12.9 0.00 0.00 0.00 54 1019.0
20200530165039 25 288 3.2 14.5 0.00 0.00 0.00 62 1019.0
20200530164553 25 342 1.6 17.7 0.00 0.00 0.00 55 1019.1
20200530164037 25 269 8.0 17.7 0.00 0.00 0.00 55 1019.0
20200530163542 25 288 1.6 8.0 0.00 0.00 0.00 58 1019.2
20200530163045 25 5 4.8 8.0 0.00 0.00 0.00 56 1019.4
20200530162545 25 57 1.6 8.0 0.00 0.00 0.00 54 1019.3
20200530162036 25 46 3.2 9.7 0.00 0.00 0.00 55 1019.3
20200530161559 25 30 1.6 9.7 0.00 0.00 0.00 58 1019.3
20200530161035 25 273 1.6 9.7 0.00 0.00 0.00 58 1019.3
20200530160537 25 286 3.2 16.1 0.00 0.00 0.00 63 1019.3
20200530160041 24 321 6.4 16.1 0.00 0.00 0.00 61 1019.5
20200530155531 24 263 4.8 16.1 0.00 0.00 0.00 65 1019.4
20200530155029 24 34 3.2 16.1 0.00 0.00 0.00 61 1019.3
20200530154546 23 269 6.4 16.1 0.00 0.00 0.00 67 1019.4
20200530154034 23 275 3.2 14.5 0.00 0.00 0.00 64 1019.5
20200530153542 23 331 1.6 9.7 0.00 0.00 0.00 66 1019.4
20200530153112 23 17 0.0 12.9 0.00 0.00 0.00 68 1019.4
20200530152528 23 282 1.6 12.9 0.00 0.00 0.00 69 1019.4
20200530152033 24 281 4.8 12.9 0.00 0.00 0.00 70 1019.4
20200530151607 23 14 1.6 6.4 0.00 0.00 0.00 66 1019.4
20200530151029 23 5 1.6 6.4 0.00 0.00 0.00 70 1019.5
20200530150530 23 279 1.6 8.0 0.00 0.00 0.00 70 1019.5
20200530150042 23 328 3.2 8.0 0.00 0.00 0.00 71 1019.6
20200530145527 23 32 0.0 6.4 0.00 0.00 0.00 70 1019.6
20200530145029 23 312 1.6 6.4 0.00 0.00 0.00 70 1019.6
20200530144533 23 267 0.0 9.7 0.00 0.00 0.00 74 1019.6
20200530144035 22 288 1.6 9.7 0.00 0.00 0.00 78 1019.6
20200530143527 23 303 3.2 8.0 0.00 0.00 0.00 75 1019.5
20200530143022 22 13 0.0 6.4 0.00 0.00 0.00 74 1019.6
20200530142520 22 267 1.6 6.4 0.00 0.00 0.00 77 1019.6
20200530142019 22 355 1.6 8.0 0.00 0.00 0.00 75 1019.6
20200530141530 22 5 0.0 11.3 0.00 0.00 0.00 77 1019.7
20200530141016 22 281 3.2 11.3 0.00 0.00 0.00 77 1019.7
20200530140515 22 285 1.6 8.0 0.00 0.00 0.00 82 1019.7
20200530140014 21 337 0.0 6.4 0.00 0.00 0.00 83 1019.8
20200530135514 21 281 1.6 8.0 0.00 0.00 0.00 85 1019.7
20200530135030 21 285 1.6 8.0 0.00 0.00 0.00 85 1019.6
20200530134511 21 283 1.6 9.7 0.00 0.00 0.00 85 1019.7
20200530134010 21 309 1.6 8.0 0.00 0.00 0.00 86 1019.8
20200530133519 20 287 0.0 8.0 0.00 0.00 0.00 88 1019.8
20200530133010 20 270 0.0 11.3 0.00 0.00 0.00 88 1019.8
20200530132506 20 270 1.6 11.3 0.00 0.00 0.00 90 1019.8
20200530132006 20 342 0.0 0.0 0.00 0.00 0.00 91 1019.8
20200530131517 19 286 0.0 0.0 0.00 0.00 0.00 91 1019.7
20200530131002 19 320 0.0 0.0 0.00 0.00 0.00 91 1019.7
20200530130501 18 295 0.0 0.0 0.00 0.00 0.00 91 1019.7
20200530130211 18 315 0.0 0.0 0.00 0.00 0.00 92 1019.7
20200530125637 18 195 0.0 0.0 0.00 0.00 0.00 93 1019.7
20200530125058 18 21 0.0 0.0 0.00 0.00 0.00 93 1019.5
20200530124659 18 21 0.0 0.0 0.00 0.00 0.00 94 1019.6
20200530124058 18 21 0.0 0.0 0.00 0.00 0.00 94 1019.4
20200530123557 17 21 0.0 0.0 0.00 0.00 0.00 94 1019.3
20200530123120 17 21 0.0 0.0 0.00 0.00 0.00 94 1019.3
20200530122557 17 21 0.0 0.0 0.00 0.00 0.00 94 1019.3
20200530122058 17 21 0.0 0.0 0.00 0.00 0.00 94 1019.2
20200530121717 17 21 0.0 0.0 0.00 0.00 0.00 95 1019.2
20200530121057 17 21 0.0 0.0 0.00 0.00 0.00 94 1019.2
20200530120557 17 30 0.0 0.0 0.00 0.00 0.00 95 1019.2
20200530120246 17 38 0.0 0.0 0.00 0.00 0.00 95 1019.3
20200530115608 17 38 0.0 0.0 0.00 0.00 0.00 96 1019.3
20200530115056 16 38 0.0 0.0 0.00 0.00 0.00 95 1019.2
20200530114627 16 36 0.0 0.0 0.00 0.00 0.00 95 1019.1
20200530114108 16 36 0.0 0.0 0.00 0.00 0.00 95 1019.0
20200530113614 16 32 0.0 1.6 0.00 0.00 0.00 95 1019.3
20200530113149 16 32 0.0 1.6 0.00 0.00 0.00 95 1019.1
20200530112554 16 344 0.0 1.6 0.00 0.00 0.00 95 1019.2
20200530112056 16 344 0.0 1.6 0.00 0.00 0.00 96 1019.2
20200530111713 16 344 0.0 0.0 0.00 0.00 0.00 95 1019.2
20200530111053 16 344 0.0 0.0 0.00 0.00 0.00 95 1019.0
20200530110604 16 344 0.0 0.0 0.00 0.00 0.00 95 1019.0
20200530110117 16 344 0.0 0.0 0.00 0.00 0.00 94 1019.0
20200530105555 16 344 0.0 0.0 0.00 0.00 0.00 94 1018.9
20200530105054 16 344 0.0 0.0 0.00 0.00 0.00 94 1018.9
20200530104624 16 344 0.0 0.0 0.00 0.00 0.00 94 1018.9
20200530104050 16 344 0.0 0.0 0.00 0.00 0.00 94 1018.9
20200530103549 16 344 0.0 0.0 0.00 0.00 0.00 94 1018.8
20200530103128 16 344 0.0 0.0 0.00 0.00 0.00 94 1018.9
20200530102610 16 344 0.0 0.0 0.00 0.00 0.00 95 1018.8
20200530102048 16 344 0.0 0.0 0.00 0.00 0.00 95 1018.8
20200530101611 16 344 0.0 0.0 0.00 0.00 0.00 95 1018.7
20200530101537 16 344 0.0 0.0 0.00 0.00 0.00 95 1018.8
20200530101047 16 344 0.0 0.0 0.00 0.00 0.00 95 1018.7
20200530100545 16 344 0.0 0.0 0.00 0.00 0.00 95 1018.7
20200530100152 16 344 0.0 0.0 0.00 0.00 0.00 94 1018.6
20200530095551 16 344 0.0 0.0 0.00 0.00 0.00 94 1018.6
20200530094611 16 344 0.0 0.0 0.00 0.00 0.00 93 1018.4
20200530094043 16 344 0.0 0.0 0.00 0.00 0.00 93 1018.4
20200530093541 17 344 0.0 0.0 0.00 0.00 0.00 93 1018.3
20200530093101 17 344 0.0 0.0 0.00 0.00 0.00 94 1018.4
20200530093019 17 344 0.0 0.0 0.00 0.00 0.00 94 1018.3
20200530092550 17 344 0.0 0.0 0.00 0.00 0.00 94 1018.3
20200530092050 17 344 0.0 0.0 0.00 0.00 0.00 94 1018.3
20200530091603 17 344 0.0 0.0 0.00 0.00 0.00 94 1018.3
20200530091040 17 344 0.0 0.0 0.00 0.00 0.00 94 1018.3
20200530090539 17 344 0.0 1.6 0.00 0.00 0.00 94 1018.3
20200530090110 17 344 0.0 1.6 0.00 0.00 0.00 94 1018.2
20200530085539 17 344 0.0 1.6 0.00 0.00 0.00 94 1018.3
20200530085040 17 344 0.0 3.2 0.00 0.00 0.00 94 1018.3
20200530084631 17 344 0.0 3.2 0.00 0.00 0.00 94 1018.2
20200530084038 17 346 0.0 3.2 0.00 0.00 0.00 94 1018.2
20200530083542 17 5 0.0 3.2 0.00 0.00 0.00 94 1018.1
20200530083140 17 5 0.0 0.0 0.00 0.00 0.00 94 1018.0